< Typhoon 201224 2012 Season Typhoon 201301 >
Typhoon 201225 (WUKONG)
General InformationTrack Information on Google MapsDetailed Wind InformationForecast History on Google MapsAccess Analytics MapList of All Images || Disaster Info.WeblogTrackbackTyphoon FrontTwiphoonTyphoon Now!Typhoon ImaginationResourceGoogle EarthGE AnimationAtom FeedGeoJSON
Detalied Best Track (Time Zone = UTC)
Year Month Day Hour Lat. Long. Pressure (hPa) Wind (kt) Class Image Chart
2012 12 24 00 7.8 132.6 1006 0 2 Image Chart
2012 12 24 06 9.0 131.7 1002 0 2 Image Chart
2012 12 24 12 9.3 130.9 1004 0 2 Image Chart
2012 12 24 18 9.7 130.0 1004 0 2 Image Chart
2012 12 25 00 10.1 128.8 1002 35 3 Image Chart
2012 12 25 06 10.2 127.2 1000 40 3 Image Chart
2012 12 25 12 10.4 126.3 1000 40 3 Image Chart
2012 12 25 18 10.6 124.7 1000 40 3 Image Chart
2012 12 26 00 10.4 123.3 1002 35 3 Image Chart
2012 12 26 06 10.2 122.0 1002 35 3 Image Chart
2012 12 26 12 10.0 120.4 1002 35 3 Image Chart
2012 12 26 18 10.5 119.0 1002 35 3 Image Chart
2012 12 27 00 10.3 117.4 1002 35 3 Image Chart
2012 12 27 06 10.2 115.9 1002 35 3 Image Chart
2012 12 27 12 10.1 114.8 1002 35 3 Image Chart
2012 12 27 18 10.1 113.6 1002 35 3 Image Chart
2012 12 28 00 9.7 112.5 1002 35 3 Image Chart
2012 12 28 06 8.7 111.0 1004 0 2 Image Chart
2012 12 28 12 8.2 109.8 1004 0 2 Image Chart
2012 12 28 18 7.7 108.4 1004 0 2 Image Chart
2012 12 29 00 7.4 107.3 1004 0 2 Image Chart
2012 12 29 06 7.0 106.0 1006 0 2 Image Chart
2012 12 29 12 7.1 104.9 1006 0 2 Image Chart
Japan Meteorological Agency Best Track Data | Correction Date : 2013-01-17
< Typhoon 201224 2012 Season Typhoon 201301 >

Help